Terminal Aerodrome Forecast
Issued by NWS Sterling, VA

Current Version | Previous Version | Text Only | Print | Product List | Glossary On
Versions: 1 2 3 4 5 6 7 8 9 10 11 12 13 14 15 16 17 18 19 20 21
788
FTUS41 KLWX 222046 AAA
TAFBWI
TAF AMD
KBWI 222046Z 2221/2324 24006KT P6SM -SHRA OVC050
      TEMPO 2222/2224 28015G25KT 3SM -TSRA BKN025CB
     FM230000 26005KT 4SM -TSRA OVC060CB
     FM230600 25006KT P6SM VCTS BKN060CB
     FM230800 26006KT P6SM BKN070
     FM231800 27006KT P6SM -SHRA VCTS BKN050CB
     FM232300 20005KT P6SM -SHRA VCTS BKN060CB=

USA.gov is the U.S. government's official web portal to all federal, state and local government web resources and services.